ADDS METAR Data INFO
IDs: Format: Raw Decoded Include TAF

Data at: 1158 UTC 21 Jun 2018

KEKY 211156Z AUTO 31005KT 10SM BKN010 OVC039 24/23 A2995 RMK AO2 LTG DSNT N SLP147 T02390233 10250 20233 53014
KEKY 211056Z AUTO 21003KT 10SM BKN120 24/23 A2992 RMK AO2 SLP136 T02390228
KEKY 210956Z AUTO 20004KT 10SM CLR 24/22 A2991 RMK AO2 SLP131 T02390222
KEKY 210856Z AUTO 19003KT 10SM CLR 24/23 A2990 RMK AO2 SLP130 T02440228 56012
KEKY 210756Z AUTO 00000KT 10SM SCT120 24/23 A2991 RMK AO2 SLP131 T02440228
KEKY 210656Z AUTO 00000KT 10SM SCT045 24/23 A2992 RMK AO2 SLP137 T02440228
KEKY 210556Z AUTO 00000KT 10SM CLR 23/23 A2994 RMK AO2 SLP143 T02330228 10272 20228 403280206 58007
KEKY 210456Z AUTO 00000KT 10SM CLR 23/23 A2995 RMK AO2 SLP146 T02330228
KEKY 210356Z AUTO 00000KT 10SM CLR 23/23 A2996 RMK AO2 SLP151 T02330228
KEKY 210256Z AUTO 00000KT 10SM CLR 24/23 A2996 RMK AO2 SLP151 T02390228 53008
KEKY 210156Z AUTO 00000KT 10SM CLR 24/23 A2995 RMK AO2 SLP147 T02440228
KEKY 210056Z AUTO 01005KT 10SM CLR 26/22 A2993 RMK AO2 SLP142 T02610222
KEKY 202356Z AUTO 01004KT 10SM CLR 27/23 A2994 RMK AO2 TSE43 SLP143 T02720233 10328 20272 53002
KEKY 202354Z AUTO 01004KT 10SM CLR 27/23 A2994 RMK AO2 TSE43
KEKY 202256Z AUTO 21005KT 9SM VCTS CLR 31/23 A2992 RMK AO2 LTG DSNT NW TSB47 SLP138 T03060233
KEKY 202156Z AUTO 28003KT 10SM CLR 31/23 A2993 RMK AO2 SLP140 T03110233
KEKY 202056Z AUTO 00000KT 10SM CLR 31/22 A2994 RMK AO2 SLP145 T03110222 56019
KEKY 201956Z AUTO 29004KT 10SM FEW050 32/22 A2996 RMK AO2 SLP149 T03220217
KEKY 201856Z AUTO 25006KT 10SM CLR 32/22 A2998 RMK AO2 SLP157 T03220217
KEKY 201756Z AUTO VRB03KT 10SM FEW049 32/21 A3000 RMK AO2 SLP162 T03220211 10328 20239 58008
KEKY 201556Z AUTO 14003KT 10SM CLR 31/20 A3002 RMK AO2 SLP170 T03060200
KEKY 201456Z AUTO 00000KT 10SM CLR 29/21 A3002 RMK AO2 SLP171 T02940211 51006
KEKY 201356Z AUTO 13003KT 10SM CLR 28/23 A3002 RMK AO2 SLP172 T02780228
KEKY 201256Z AUTO 00000KT 10SM CLR 26/21 A3002 RMK AO2 SLP172 T02610211
KEKY 201156Z AUTO 00000KT 10SM CLR 24/22 A3001 RMK AO2 SLP166 T02390217 10250 20206 51006
KEKY 201056Z AUTO 00000KT 10SM CLR 21/21 A3000 RMK AO2 SLP164 T02110211
KEKY 200956Z AUTO 00000KT 10SM CLR 21/21 A3000 RMK AO2 SLP164 T02110211
KEKY 200856Z AUTO 00000KT 10SM CLR 21/21 A2999 RMK AO2 SLP160 T02110211 58010
KEKY 200656Z AUTO 00000KT 10SM CLR 22/22 A3001 RMK AO2 SLP168 T02170217
KEKY 200556Z AUTO 35004KT 10SM CLR 25/21 A3002 RMK AO2 SLP169 T02500211 10306 20239 403330222 50001
KEKY 200456Z AUTO 02003KT 10SM CLR 26/22 A3002 RMK AO2 SLP169 T02560222
KEKY 200356Z AUTO 00000KT 10SM CLR 26/23 A3003 RMK AO2 SLP172 T02560228
KEKY 200256Z AUTO 00000KT 10SM CLR 26/23 A3002 RMK AO2 SLP169 T02610228 53006
KEKY 200156Z AUTO 00000KT 10SM CLR 24/23 A3001 RMK AO2 SLP167 T02440228
KEKY 200056Z AUTO 00000KT 10SM CLR 26/23 A3000 RMK AO2 SLP164 T02560233